Currently 59°F in Perris, California, USA
59°F
63°F / 59°F
calm
0.00"
Monday, May 29, 2017 2:44 AM PDT

Perris, California Weather Summary
Last 36 Hours

Temperature Winds Hourly Humidity Dewpoint
Time Report Norm Report Norm Max Gusts Precip. Rpt. Norm Rpt. Norm Pressure
1,3Mon 02:44 AM  59.3°F  57°F  calm  2 mph  3 mph  0.00"  85%  85%  55°F  52°F  29.94"
Mon 02:00 AM  59.4°F  57°F  2 mph NE  2 mph  3 mph  0.00"  85%  83%  55°F  52°F  29.95"
Mon 01:00 AM  60.5°F  58°F  calm  2 mph  10 mph  0.00"  83%  81%  55°F  52°F  29.97"
2Mon 12:01 AM  62.7°F  59°F  3 mph S  3 mph  9 mph  ----  78%  79%  56°F  52°F  29.98"
Mon 12:00 AM  62.7°F  59°F  4 mph SW  3 mph  9 mph  0.00"  78%  78%  56°F  52°F  29.98"
Sun 11:00 PM  64.4°F  60°F  4 mph NW  3 mph  8 mph  0.00"  73%  75%  55°F  52°F  29.98"
Sun 10:00 PM  67.2°F  62°F  4 mph W  3 mph  8 mph  0.00"  67%  70%  56°F  52°F  29.98"
Sun 09:00 PM  70.0°F  65°F  4 mph NW  4 mph  10 mph  0.00"  61%  63%  56°F  51°F  29.97"
Sun 08:00 PM  74.2°F  68°F  4 mph W  5 mph  12 mph  0.00"  52%  54%  55°F  50°F  29.95"
Sun 07:00 PM  78.5°F  72°F  5 mph W  7 mph  14 mph  0.00"  43%  46%  53°F  50°F  29.94"
Sun 06:00 PM  82.4°F  76°F  8 mph NW  7 mph  15 mph  0.00"  40%  41%  55°F  50°F  29.92"
Sun 05:00 PM  85.0°F  78°F  6 mph W  7 mph  15 mph  0.00"  35%  38%  54°F  50°F  29.92"
Sun 04:00 PM  86.9°F  79°F  7 mph W  7 mph  15 mph  0.00"  33%  37%  53°F  50°F  29.94"
Sun 03:00 PM  86.0°F  79°F  8 mph NW  6 mph  14 mph  0.00"  32%  37%  51°F  49°F  29.96"
Sun 02:00 PM  85.1°F  78°F  4 mph NW  5 mph  12 mph  0.00"  32%  38%  51°F  49°F  29.98"
Sun 01:00 PM  81.4°F  77°F  4 mph S  5 mph  11 mph  0.00"  37%  40%  52°F  49°F  30.00"
Sun 12:00 PM  77.8°F  74°F  5 mph NE  4 mph  12 mph  0.00"  44%  44%  53°F  50°F  30.02"
Sun 11:00 AM  74.8°F  70°F  2 mph W  3 mph  11 mph  0.00"  51%  52%  55°F  51°F  30.04"
Sun 10:00 AM  69.7°F  66°F  2 mph SW  3 mph  8 mph  0.00"  60%  62%  55°F  52°F  30.05"
Sun 09:00 AM  64.8°F  62°F  1 mph SW  2 mph  5 mph  0.00"  72%  73%  55°F  53°F  30.06"
Sun 08:00 AM  59.8°F  58°F  calm  2 mph  none  0.00"  83%  83%  55°F  53°F  30.05"
Sun 07:00 AM  52.7°F  55°F  calm  2 mph  none  0.00"  91%  89%  50°F  52°F  30.05"
Sun 06:00 AM  53.3°F  55°F  calm  2 mph  none  0.00"  91%  89%  51°F  51°F  30.03"
Sun 05:00 AM  53.9°F  55°F  calm  2 mph  none  0.00"  90%  88%  51°F  51°F  30.02"
Sun 04:00 AM  54.0°F  56°F  calm  2 mph  2 mph  0.00"  90%  87%  51°F  52°F  30.02"
Sun 03:00 AM  55.9°F  56°F  calm  2 mph  3 mph  0.00"  87%  85%  52°F  52°F  30.03"
Sun 02:00 AM  56.2°F  57°F  calm  2 mph  2 mph  0.00"  85%  84%  52°F  52°F  30.03"
Sun 01:00 AM  57.7°F  58°F  calm  2 mph  6 mph  0.00"  83%  82%  52°F  52°F  30.04"
Sun 12:00 AM  58.9°F  59°F  2 mph S  3 mph  8 mph  0.00"  81%  79%  53°F  52°F  30.04"
Sat 11:00 PM  60.2°F  60°F  3 mph NW  3 mph  6 mph  0.00"  77%  76%  53°F  52°F  30.04"
Sat 10:00 PM  62.4°F  62°F  3 mph W  3 mph  8 mph  0.00"  74%  71%  54°F  52°F  30.03"
Sat 09:00 PM  64.1°F  64°F  4 mph NW  4 mph  12 mph  0.00"  70%  65%  54°F  51°F  30.02"
Sat 08:00 PM  66.6°F  67°F  6 mph W  5 mph  14 mph  0.00"  65%  56%  54°F  51°F  30.00"
Sat 07:00 PM  71.6°F  71°F  7 mph NW  6 mph  15 mph  0.00"  54%  48%  53°F  50°F  29.99"
Sat 06:00 PM  75.4°F  75°F  9 mph NW  7 mph  14 mph  0.00"  47%  43%  53°F  50°F  29.98"
Sat 05:00 PM  77.9°F  77°F  7 mph W  7 mph  16 mph  0.00"  42%  40%  52°F  50°F  29.98"
Sat 04:00 PM  79.6°F  78°F  6 mph NW  7 mph  14 mph  0.00"  37%  38%  50°F  50°F  29.99"
Sat 03:00 PM  78.0°F  78°F  5 mph W  6 mph  13 mph  0.00"  39%  38%  50°F  50°F  30.01"

  1. Current weather data. No green row appears if the current weather data is also the high or low for the current day.
  2. High temperature for the current day.
  3. Low temperature for the current day.

The Perris, California weather pages are a service of WeatherCurrents. Perris is located in Southern California's Inland Empire, south of Riverside and north of Sun City, along the Interstate 215 freeway.
Copyright ©Mon May 29 02:45:25 PDT 2017  WeatherCurrents. All rights reserved. - Submit questions and comments - Privacy Policy

This page automatically refreshes every 10 minutes.